Time;durP1;ratioP1;P1;durP2;ratioP2;P2;SDS_P1;SDS_P2;PMS_P1;PMS_P2;Temp;Humidity;BMP_temperature;BMP_pressure;BME280_temperature;BME280_humidity;BME280_pressure;Samples;Min_cycle;Max_cycle;Signal;HPM_P1;HPM_P2
2021/03/02 00:02:17;;;;;;;;;;;;;;;2.38;89.46;102589.77;1755826;81;20220;-59
2021/03/02 00:04:45;;;;;;;;;;;;;;;2.36;89.44;102586.19;1756154;81;20221;-58
2021/03/02 00:07:13;;;;;;;;;;;;;;;2.36;89.54;102585.73;1755979;81;21208;-58
2021/03/02 00:09:41;;;;;;;;;;;;;;;2.37;89.57;102589.30;1756202;81;20722;-58
2021/03/02 00:12:10;;;;;;;;;;;;;;;2.38;89.68;102587.12;1753398;81;20217;-58
2021/03/02 00:14:37;;;;;;;;;;;;;;;2.36;89.61;102584.41;1756151;81;20294;-59
2021/03/02 00:17:11;;;;;;;;;;;;;;;2.36;89.56;102584.41;1756082;81;20237;-59
2021/03/02 00:19:49;;;;;;;;;;;;;;;2.37;89.35;102585.33;1756129;81;21408;-59
2021/03/02 00:22:24;;;;;;;;;;;;;;;2.36;89.26;102572.50;1756220;81;20228;-58
2021/03/02 00:24:54;;;;;;;;;;;;;;;2.32;89.49;102569.71;1756163;81;20217;-58
2021/03/02 00:27:23;;;;;;;;;;;;;;;2.28;89.63;102566.98;1756185;81;20233;-58
2021/03/02 00:29:52;;;;;;;;;;;;;;;2.27;89.94;102567.84;1756154;81;20213;-58
2021/03/02 00:32:20;;;;;;;;;;;;;;;2.26;90.00;102562.07;1756232;81;21734;-58
2021/03/02 00:34:47;;;;;;;;;;;;;;;2.27;90.13;102559.02;1756233;81;20204;-58
2021/03/02 00:37:15;;;;;;;;;;;;;;;2.25;90.10;102557.63;1756332;81;20217;-58
2021/03/02 00:39:43;;;;;;;;;;;;;;;2.26;90.01;102551.93;1756192;81;20220;-58
2021/03/02 00:42:10;;;;;;;;;;;;;;;2.27;90.04;102553.72;1756340;81;20245;-59
2021/03/02 00:44:38;;;;;;;;;;;;;;;2.28;89.87;102555.07;1775903;80;21182;-58
2021/03/02 00:47:05;;;;;;;;;;;;;;;2.28;89.57;102555.07;1788659;80;20238;-58
2021/03/02 00:49:33;;;;;;;;;;;;;;;2.27;89.78;102545.34;1788765;80;20222;-58
2021/03/02 00:52:00;;;;;;;;;;;;;;;2.28;89.93;102552.87;1788724;80;20219;-59
2021/03/02 00:54:28;;;;;;;;;;;;;;;2.28;89.84;102555.52;1788756;80;20253;-58
2021/03/02 00:56:55;;;;;;;;;;;;;;;2.28;90.03;102552.42;1788683;80;21663;-58
2021/03/02 00:59:22;;;;;;;;;;;;;;;2.30;90.13;102549.83;1788778;80;20151;-59
2021/03/02 01:01:53;;;;;;;;;;;;;;;2.31;90.30;102554.69;1788679;80;20472;-58
2021/03/02 01:04:20;;;;;;;;;;;;;;;2.32;90.32;102557.80;1788729;80;20242;-58
2021/03/02 01:06:50;;;;;;;;;;;;;;;2.32;90.17;102556.48;1788708;80;20222;-58
2021/03/02 01:09:17;;;;;;;;;;;;;;;2.28;90.03;102547.12;1788880;80;21563;-59
2021/03/02 01:11:47;;;;;;;;;;;;;;;2.26;89.97;102554.58;1788609;80;20242;-58
2021/03/02 01:14:15;;;;;;;;;;;;;;;2.24;89.91;102554.96;1788750;80;20218;-58
2021/03/02 01:16:42;;;;;;;;;;;;;;;2.22;89.89;102552.25;1788683;80;20214;-58
2021/03/02 01:19:10;;;;;;;;;;;;;;;2.21;89.36;102555.76;1788756;80;20131;-59
2021/03/02 01:21:39;;;;;;;;;;;;;;;2.21;89.13;102549.14;1788789;80;21387;-59
2021/03/02 01:24:10;;;;;;;;;;;;;;;2.19;88.90;102541.59;1788697;80;20183;-59
2021/03/02 01:26:37;;;;;;;;;;;;;;;2.24;88.67;102545.25;1788659;80;20237;-58
2021/03/02 01:29:05;;;;;;;;;;;;;;;2.24;88.71;102545.70;1787475;80;20215;-58
2021/03/02 01:31:32;;;;;;;;;;;;;;;2.24;88.83;102544.38;1782987;80;20234;-58
2021/03/02 01:34:00;;;;;;;;;;;;;;;2.23;88.80;102547.43;1782805;80;21199;-58
2021/03/02 01:36:27;;;;;;;;;;;;;;;2.23;88.09;102550.08;1782823;80;20220;-58
2021/03/02 01:38:54;;;;;;;;;;;;;;;2.23;87.95;102546.11;1782860;80;20219;-59
2021/03/02 01:41:21;;;;;;;;;;;;;;;2.23;88.00;102547.43;1782845;80;20235;-59
2021/03/02 01:43:48;;;;;;;;;;;;;;;2.22;87.90;102535.05;1774753;80;20232;-60
2021/03/02 01:46:15;;;;;;;;;;;;;;;2.20;87.68;102535.44;1751816;82;21377;-59
2021/03/02 01:48:43;;;;;;;;;;;;;;;2.20;87.55;102539.82;1751865;82;20296;-59
2021/03/02 01:51:10;;;;;;;;;;;;;;;2.22;87.35;102536.38;1751912;81;20109;-58
2021/03/02 01:53:38;;;;;;;;;;;;;;;2.23;87.12;102535.52;1751947;82;20130;-58
2021/03/02 01:56:05;;;;;;;;;;;;;;;2.23;86.68;102535.97;1751886;82;20228;-58
2021/03/02 01:58:33;;;;;;;;;;;;;;;2.20;86.40;102538.50;1751927;81;21219;-58
2021/03/02 02:01:07;;;;;;;;;;;;;;;2.17;86.31;102540.65;1751840;82;20225;-58
2021/03/02 02:03:42;;;;;;;;;;;;;;;2.17;86.24;102541.97;1751948;82;20225;-58
2021/03/02 02:06:13;;;;;;;;;;;;;;;2.14;85.43;102540.12;1751848;82;20228;-59
2021/03/02 02:08:53;;;;;;;;;;;;;;;2.14;85.62;102532.63;1751990;82;20217;-58
2021/03/02 02:11:45;;;;;;;;;;;;;;;2.16;85.53;102538.86;1751955;82;21327;-58
2021/03/02 02:14:20;;;;;;;;;;;;;;;2.14;84.41;102543.21;1751872;82;20875;-58
2021/03/02 02:16:48;;;;;;;;;;;;;;;2.12;84.40;102533.02;1751954;82;20217;-58
2021/03/02 02:19:51;;;;;;;;;;;;;;;2.15;83.75;102537.06;1751893;82;20540;-58
2021/03/02 02:22:31;;;;;;;;;;;;;;;2.13;83.51;102529.52;1751915;82;20241;-59
2021/03/02 02:25:08;;;;;;;;;;;;;;;2.11;83.22;102532.55;1751913;82;21379;-59
2021/03/02 02:27:35;;;;;;;;;;;;;;;2.09;82.77;102531.57;1751314;82;20232;-59
2021/03/02 02:30:07;;;;;;;;;;;;;;;2.10;82.65;102528.98;1743062;82;20251;-59
2021/03/02 02:32:34;;;;;;;;;;;;;;;2.11;82.03;102529.89;1732202;83;20706;-59
2021/03/02 02:35:05;;;;;;;;;;;;;;;2.12;81.47;102527.72;1707805;83;20262;-59
2021/03/02 02:37:36;;;;;;;;;;;;;;;2.14;80.96;102531.30;1732149;83;21266;-59
2021/03/02 02:40:02;;;;;;;;;;;;;;;2.13;80.51;102537.00;1731944;83;20702;-59
2021/03/02 02:42:30;;;;;;;;;;;;;;;2.13;80.35;102538.77;1732175;83;20223;-60
2021/03/02 02:44:57;;;;;;;;;;;;;;;2.12;79.79;102535.66;1733313;82;20230;-59
2021/03/02 02:47:25;;;;;;;;;;;;;;;2.12;79.70;102533.02;1698756;84;20675;-58
2021/03/02 02:49:53;;;;;;;;;;;;;;;2.11;79.28;102533.86;1733429;82;21403;-58
2021/03/02 02:52:20;;;;;;;;;;;;;;;2.12;78.43;102539.63;1755344;81;20290;-58
2021/03/02 02:54:49;;;;;;;;;;;;;;;2.15;77.73;102539.71;1733330;82;20255;-58
2021/03/02 02:57:17;;;;;;;;;;;;;;;2.15;74.58;102537.06;1733362;82;20251;-59
2021/03/02 02:59:45;;;;;;;;;;;;;;;2.17;69.91;102542.38;1733440;82;20283;-58
2021/03/02 03:02:23;;;;;;;;;;;;;;;2.26;69.83;102546.64;1733369;82;21216;-58
2021/03/02 03:04:54;;;;;;;;;;;;;;;2.31;70.15;102538.39;1733429;82;20654;-59
2021/03/02 03:07:23;;;;;;;;;;;;;;;2.34;69.89;102537.59;1732860;82;20800;-59
2021/03/02 03:09:53;;;;;;;;;;;;;;;2.36;69.86;102538.53;1733383;82;20275;-59
2021/03/02 03:12:21;;;;;;;;;;;;;;;2.36;69.52;102539.41;1733446;82;20243;-59
2021/03/02 03:14:54;;;;;;;;;;;;;;;2.38;69.65;102535.49;1733357;82;21386;-59
2021/03/02 03:17:22;;;;;;;;;;;;;;;2.40;69.95;102532.45;1733361;81;20239;-59
2021/03/02 03:19:50;;;;;;;;;;;;;;;2.41;69.34;102534.25;1733324;82;20259;-59
2021/03/02 03:22:20;;;;;;;;;;;;;;;2.41;69.28;102536.45;1733417;82;20239;-59
2021/03/02 03:24:47;;;;;;;;;;;;;;;2.41;69.52;102532.92;1733391;82;20494;-59
2021/03/02 03:27:14;;;;;;;;;;;;;;;2.42;69.81;102537.36;1733366;82;21621;-59
2021/03/02 03:29:42;;;;;;;;;;;;;;;2.42;69.97;102530.75;1736516;82;20225;-59
2021/03/02 03:32:10;;;;;;;;;;;;;;;2.41;70.10;102528.52;1754074;82;20236;-59
2021/03/02 03:34:39;;;;;;;;;;;;;;;2.39;69.96;102538.61;1754002;82;20236;-59
2021/03/02 03:37:06;;;;;;;;;;;;;;;2.38;70.41;102531.52;1754189;82;21031;-59
2021/03/02 03:39:33;;;;;;;;;;;;;;;2.34;70.55;102533.17;1754109;82;22883;-59
2021/03/02 03:42:00;;;;;;;;;;;;;;;2.31;70.10;102532.19;1754069;82;20426;-59
2021/03/02 03:44:27;;;;;;;;;;;;;;;2.29;69.47;102533.04;1755889;81;20268;-59
2021/03/02 03:46:54;;;;;;;;;;;;;;;2.29;68.75;102531.71;1758409;81;21497;-59
2021/03/02 03:49:22;;;;;;;;;;;;;;;2.31;68.56;102534.42;1741353;82;20309;-59
2021/03/02 03:51:49;;;;;;;;;;;;;;;2.32;68.94;102530.91;1757499;81;21555;-59
2021/03/02 03:54:16;;;;;;;;;;;;;;;2.32;69.10;102527.36;1758063;81;20256;-59
2021/03/02 03:56:44;;;;;;;;;;;;;;;2.34;69.37;102530.97;1758023;81;20272;-59
2021/03/02 03:59:12;;;;;;;;;;;;;;;2.33;69.51;102525.21;1758078;81;20292;-59
2021/03/02 04:01:39;;;;;;;;;;;;;;;2.33;69.13;102522.56;1758153;81;20185;-59
2021/03/02 04:04:06;;;;;;;;;;;;;;;2.35;68.71;102522.17;1733291;81;21357;-59
2021/03/02 04:06:34;;;;;;;;;;;;;;;2.35;68.61;102522.17;1758002;81;20268;-59
2021/03/02 04:09:02;;;;;;;;;;;;;;;2.34;68.24;102519.94;1758224;81;20222;-59
2021/03/02 04:11:29;;;;;;;;;;;;;;;2.34;68.33;102518.61;1758160;81;20228;-59
2021/03/02 04:13:56;;;;;;;;;;;;;;;2.34;68.33;102519.06;1758159;81;20213;-59
2021/03/02 04:16:23;;;;;;;;;;;;;;;2.33;68.55;102515.50;1758226;81;21400;-59
2021/03/02 04:18:51;;;;;;;;;;;;;;;2.33;68.51;102523.89;1758066;81;20149;-59
2021/03/02 04:21:18;;;;;;;;;;;;;;;2.34;67.72;102523.03;1758193;81;20252;-59
2021/03/02 04:23:45;;;;;;;;;;;;;;;2.33;67.86;102517.27;1758051;81;20214;-58
2021/03/02 04:26:13;;;;;;;;;;;;;;;2.35;67.67;102523.50;1758232;81;20220;-59
2021/03/02 04:28:40;;;;;;;;;;;;;;;2.34;67.41;102512.00;1758114;81;21397;-59
2021/03/02 04:31:07;;;;;;;;;;;;;;;2.36;67.54;102522.64;1756888;81;20220;-58
2021/03/02 04:33:34;;;;;;;;;;;;;;;2.36;67.47;102515.58;1756268;81;20154;-58
2021/03/02 04:36:04;;;;;;;;;;;;;;;2.38;66.55;102516.96;1756251;81;20221;-58
2021/03/02 04:38:31;;;;;;;;;;;;;;;2.39;66.29;102521.40;1756331;81;20476;-58
2021/03/02 04:40:58;;;;;;;;;;;;;;;2.38;65.97;102521.81;1756277;81;21213;-58
2021/03/02 04:43:25;;;;;;;;;;;;;;;2.38;65.23;102523.58;1759630;80;20244;-58
2021/03/02 04:45:53;;;;;;;;;;;;;;;2.38;64.82;102521.81;1788758;80;20238;-58
2021/03/02 04:48:20;;;;;;;;;;;;;;;2.38;63.76;102519.61;1788688;80;20215;-58
2021/03/02 04:50:47;;;;;;;;;;;;;;;2.37;63.80;102521.78;1788755;80;20214;-59
2021/03/02 04:53:15;;;;;;;;;;;;;;;2.34;64.05;102516.41;1788736;80;21203;-59
2021/03/02 04:55:42;;;;;;;;;;;;;;;2.34;63.95;102519.94;1788655;80;20226;-59
2021/03/02 04:58:09;;;;;;;;;;;;;;;2.35;63.28;102531.44;1788804;80;20234;-59
2021/03/02 05:00:37;;;;;;;;;;;;;;;2.37;63.13;102535.03;1788675;80;20218;-59
2021/03/02 05:03:05;;;;;;;;;;;;;;;2.41;62.41;102536.89;1788792;80;20231;-59
2021/03/02 05:05:32;;;;;;;;;;;;;;;2.44;61.83;102529.03;1788734;80;21210;-59
2021/03/02 05:08:00;;;;;;;;;;;;;;;2.51;61.99;102536.28;1788615;80;20214;-59
2021/03/02 05:10:27;;;;;;;;;;;;;;;2.53;60.97;102535.89;1788728;80;20238;-59
2021/03/02 05:12:55;;;;;;;;;;;;;;;2.54;60.61;102536.39;1788711;80;20250;-59
2021/03/02 05:15:22;;;;;;;;;;;;;;;2.55;60.52;102538.19;1788705;80;20234;-59
2021/03/02 05:17:49;;;;;;;;;;;;;;;2.54;60.45;102541.69;1788679;80;21541;-59
2021/03/02 05:20:18;;;;;;;;;;;;;;;2.57;60.24;102543.09;1788708;80;20234;-59
2021/03/02 05:22:45;;;;;;;;;;;;;;;2.62;59.80;102544.95;1788621;80;20246;-59
2021/03/02 05:25:13;;;;;;;;;;;;;;;2.67;59.72;102548.63;1788705;80;20269;-59
2021/03/02 05:27:41;;;;;;;;;;;;;;;2.71;59.65;102545.19;1788688;80;20143;-59
2021/03/02 05:30:09;;;;;;;;;;;;;;;2.73;59.84;102547.45;1788476;80;23603;-58
2021/03/02 05:32:36;;;;;;;;;;;;;;;2.75;60.39;102543.09;1782880;80;20282;-59
2021/03/02 05:35:06;;;;;;;;;;;;;;;2.78;60.88;102541.87;1782978;80;20277;-59
2021/03/02 05:37:33;;;;;;;;;;;;;;;2.80;61.18;102541.89;1782930;80;20707;-59
2021/03/02 05:40:00;;;;;;;;;;;;;;;2.84;61.23;102546.00;1782895;80;20230;-59
2021/03/02 05:42:27;;;;;;;;;;;;;;;2.86;61.27;102536.33;1782837;80;21347;-59
2021/03/02 05:44:55;;;;;;;;;;;;;;;2.89;61.42;102535.94;1760463;80;20237;-59
2021/03/02 05:47:22;;;;;;;;;;;;;;;2.88;62.06;102536.80;1751904;82;20114;-59
2021/03/02 05:49:49;;;;;;;;;;;;;;;2.90;62.78;102541.70;1751874;82;20241;-59
2021/03/02 05:52:17;;;;;;;;;;;;;;;2.89;62.88;102536.85;1751971;82;20221;-59
2021/03/02 05:54:44;;;;;;;;;;;;;;;2.91;62.70;102537.78;1751864;82;21383;-58
2021/03/02 05:57:11;;;;;;;;;;;;;;;2.96;62.84;102534.81;1751935;82;20134;-58
2021/03/02 05:59:38;;;;;;;;;;;;;;;3.01;62.89;102540.24;1751908;82;20241;-59
2021/03/02 06:02:05;;;;;;;;;;;;;;;3.06;63.14;102537.69;1751877;82;20225;-58
2021/03/02 06:04:33;;;;;;;;;;;;;;;3.07;63.49;102532.44;1751933;82;20221;-58
2021/03/02 06:07:01;;;;;;;;;;;;;;;3.08;63.87;102526.27;1751960;82;21282;-58
2021/03/02 06:09:29;;;;;;;;;;;;;;;3.09;64.06;102525.41;1751757;82;20252;-58
2021/03/02 06:12:05;;;;;;;;;;;;;;;3.11;64.24;102532.09;1751859;82;20225;-58
2021/03/02 06:14:36;;;;;;;;;;;;;;;3.15;64.11;102527.33;1751915;82;20237;-58
2021/03/02 06:17:04;;;;;;;;;;;;;;;3.21;64.09;102521.28;1752052;82;21107;-59
2021/03/02 06:19:45;;;;;;;;;;;;;;;3.28;64.15;102524.09;1751970;82;21370;-59
2021/03/02 06:22:38;;;;;;;;;;;;;;;3.33;64.21;102526.87;1751727;82;20233;-59
2021/03/02 06:25:09;;;;;;;;;;;;;;;3.37;64.32;102522.09;1752081;82;20391;-59
2021/03/02 06:27:40;;;;;;;;;;;;;;;3.42;64.28;102521.77;1741238;82;20306;-59
2021/03/02 06:30:13;;;;;;;;;;;;;;;3.48;64.12;102526.32;1751369;82;20484;-59
2021/03/02 06:32:43;;;;;;;;;;;;;;;3.54;63.67;102518.53;1762867;81;21212;-58
2021/03/02 06:35:12;;;;;;;;;;;;;;;3.60;63.32;102520.84;1763358;81;20221;-59
2021/03/02 06:37:44;;;;;;;;;;;;;;;3.64;62.99;102520.05;1763528;81;20228;-59
2021/03/02 06:40:13;;;;;;;;;;;;;;;3.68;61.78;102518.84;1763394;81;20283;-59
2021/03/02 06:42:41;;;;;;;;;;;;;;;3.71;61.86;102517.57;1763445;81;20319;-59
2021/03/02 06:45:10;;;;;;;;;;;;;;;3.75;61.80;102514.98;1763329;81;21371;-59
2021/03/02 06:47:39;;;;;;;;;;;;;;;3.81;61.93;102515.10;1763319;81;20216;-59
2021/03/02 06:50:15;;;;;;;;;;;;;;;3.85;62.09;102518.28;1763309;81;20224;-59
2021/03/02 06:52:43;;;;;;;;;;;;;;;3.85;62.56;102518.28;1763351;81;20216;-59
2021/03/02 06:55:18;;;;;;;;;;;;;;;3.87;63.03;102513.94;1763433;81;20488;-59
2021/03/02 06:57:46;;;;;;;;;;;;;;;3.91;63.44;102510.47;1763314;81;21213;-59
2021/03/02 07:00:15;;;;;;;;;;;;;;;3.93;63.94;102511.40;1780712;80;20274;-59
2021/03/02 07:02:43;;;;;;;;;;;;;;;3.98;64.28;102514.16;1778615;80;20212;-59
2021/03/02 07:05:16;;;;;;;;;;;;;;;4.01;64.26;102511.12;1787170;80;20209;-59
2021/03/02 07:07:45;;;;;;;;;;;;;;;4.07;64.37;102514.75;1776807;80;20268;-59
2021/03/02 07:10:14;;;;;;;;;;;;;;;4.14;64.21;102510.05;1779364;80;21205;-60
2021/03/02 07:12:42;;;;;;;;;;;;;;;4.15;63.38;102507.41;1776017;80;20218;-60
2021/03/02 07:15:17;;;;;;;;;;;;;;;4.19;62.42;102498.17;1778925;80;20389;-59
2021/03/02 07:17:45;;;;;;;;;;;;;;;4.24;61.08;102498.73;1783773;80;20489;-60
2021/03/02 07:20:17;;;;;;;;;;;;;;;4.30;60.10;102496.19;1776511;80;20504;-58
2021/03/02 07:22:48;;;;;;;;;;;;;;;4.38;60.14;102495.45;1777879;80;21442;-59
2021/03/02 07:25:21;;;;;;;;;;;;;;;4.44;60.25;102496.89;1773138;80;20629;-59
2021/03/02 07:27:51;;;;;;;;;;;;;;;4.49;59.85;102497.86;1763351;81;20240;-60
2021/03/02 07:30:20;;;;;;;;;;;;;;;4.53;59.56;102496.17;1763412;81;20787;-60
2021/03/02 07:32:47;;;;;;;;;;;;;;;4.55;59.25;102494.02;1763344;81;20213;-60
2021/03/02 07:35:19;;;;;;;;;;;;;;;4.62;58.88;102494.13;1763415;81;21225;-60
2021/03/02 07:37:47;;;;;;;;;;;;;;;4.67;58.60;102489.77;1763396;81;20228;-59
2021/03/02 07:40:17;;;;;;;;;;;;;;;4.72;57.76;102488.08;1763293;81;20232;-60
2021/03/02 07:42:45;;;;;;;;;;;;;;;4.79;57.51;102486.43;1760093;81;20795;-60
2021/03/02 07:45:15;;;;;;;;;;;;;;;4.85;57.54;102488.77;1786627;80;20246;-59
2021/03/02 07:47:53;;;;;;;;;;;;;;;4.91;57.76;102485.33;1787765;80;21359;-60
2021/03/02 07:50:30;;;;;;;;;;;;;;;4.96;58.01;102482.30;1734663;80;20471;-60
2021/03/02 07:53:20;;;;;;;;;;;;;;;5.00;58.14;102477.94;1785909;80;21015;-60
2021/03/02 07:55:50;;;;;;;;;;;;;;;5.05;57.84;102476.66;1791396;80;20230;-59
2021/03/02 07:58:18;;;;;;;;;;;;;;;5.05;57.67;102470.92;1787046;80;20489;-60
2021/03/02 08:00:47;;;;;;;;;;;;;;;5.07;57.85;102465.61;1791480;80;21207;-60
2021/03/02 08:03:24;;;;;;;;;;;;;;;5.10;58.01;102469.22;1791559;80;20154;-60
2021/03/02 08:05:56;;;;;;;;;;;;;;;5.14;57.74;102468.39;1791663;80;20234;-59
2021/03/02 08:08:28;;;;;;;;;;;;;;;5.19;57.60;102470.22;1790718;80;20276;-59
2021/03/02 08:10:57;;;;;;;;;;;;;;;5.26;57.42;102469.46;1789200;80;20285;-59
2021/03/02 08:13:32;;;;;;;;;;;;;;;5.31;58.09;102473.07;1793309;80;21206;-59
2021/03/02 08:16:00;;;;;;;;;;;;;;;5.34;58.93;102462.47;1788426;80;20223;-60
2021/03/02 08:18:37;;;;;;;;;;;;;;;5.38;59.31;102464.30;1789890;80;20222;-60
2021/03/02 08:21:18;;;;;;;;;;;;;;;5.41;58.79;102457.69;1769432;80;20243;-59
2021/03/02 08:23:55;;;;;;;;;;;;;;;5.41;58.93;102459.02;1780951;80;20293;-60
2021/03/02 08:26:29;;;;;;;;;;;;;;;5.41;58.83;102453.70;1786679;80;21378;-59
2021/03/02 08:29:17;;;;;;;;;;;;;;;5.43;59.28;102451.98;1782097;80;20208;-59
2021/03/02 08:31:49;;;;;;;;;;;;;;;5.43;59.89;102447.99;1764472;80;20294;-60
2021/03/02 08:34:18;;;;;;;;;;;;;;;5.47;60.59;102447.58;1737465;82;20381;-60
2021/03/02 08:36:50;;;;;;;;;;;;;;;5.51;61.10;102449.85;1760279;81;20224;-59
2021/03/02 08:39:18;;;;;;;;;;;;;;;5.51;61.44;102446.73;1758697;81;21217;-59
2021/03/02 08:41:47;;;;;;;;;;;;;;;5.55;61.73;102443.69;1759752;81;20236;-59
2021/03/02 08:44:25;;;;;;;;;;;;;;;5.59;62.10;102442.85;1748500;81;20286;-59
2021/03/02 08:46:56;;;;;;;;;;;;;;;5.63;62.41;102439.34;1752940;81;20296;-59
2021/03/02 08:49:24;;;;;;;;;;;;;;;5.67;62.45;102431.89;1761614;81;20216;-59
2021/03/02 08:52:01;;;;;;;;;;;;;;;5.70;62.27;102426.59;1758257;81;21204;-60
2021/03/02 08:54:28;;;;;;;;;;;;;;;5.67;62.11;102422.99;1762102;81;20225;-60
2021/03/02 08:57:03;;;;;;;;;;;;;;;5.65;62.36;102425.66;1757015;81;20224;-58
2021/03/02 08:59:37;;;;;;;;;;;;;;;5.73;62.36;102415.98;1835159;76;20172;-60
2021/03/02 09:02:04;;;;;;;;;;;;;;;5.71;61.19;102416.41;1784749;80;20198;-60
2021/03/02 09:04:34;;;;;;;;;;;;;;;5.69;60.81;102411.50;1784517;80;21690;-60
2021/03/02 09:07:01;;;;;;;;;;;;;;;5.71;60.69;102412.41;1784738;80;20119;-59
2021/03/02 09:09:29;;;;;;;;;;;;;;;5.73;60.64;102408.00;1784674;79;20306;-60
2021/03/02 09:11:58;;;;;;;;;;;;;;;5.73;60.73;102409.33;1784925;80;20112;-60
2021/03/02 09:14:28;;;;;;;;;;;;;;;5.69;60.69;102403.52;1785435;80;20143;-61
2021/03/02 09:16:58;;;;;;;;;;;;;;;5.65;60.22;102412.34;1785513;80;21364;-60
2021/03/02 09:19:27;;;;;;;;;;;;;;;5.62;59.96;102409.63;1785384;80;20203;-60
2021/03/02 09:21:57;;;;;;;;;;;;;;;5.56;59.71;102407.80;1785443;80;20135;-60
2021/03/02 09:24:32;;;;;;;;;;;;;;;5.52;59.60;102405.08;1781891;80;20151;-60
2021/03/02 09:27:05;;;;;;;;;;;;;;;5.54;59.04;102401.57;1785498;80;20557;-60
2021/03/02 09:29:34;;;;;;;;;;;;;;;5.55;58.85;102402.45;1785507;80;21379;-60
2021/03/02 09:32:03;;;;;;;;;;;;;;;5.61;58.96;102406.50;1785406;80;20276;-60
2021/03/02 09:34:39;;;;;;;;;;;;;;;5.63;58.26;102402.55;1785448;80;20171;-59
2021/03/02 09:37:10;;;;;;;;;;;;;;;5.58;58.12;102402.48;1785353;80;20230;-60
2021/03/02 09:39:39;;;;;;;;;;;;;;;5.62;57.99;102398.98;1785499;80;20227;-59
2021/03/02 09:42:19;;;;;;;;;;;;;;;5.66;57.79;102391.52;1785392;80;21353;-59
2021/03/02 09:44:48;;;;;;;;;;;;;;;5.76;57.51;102390.28;1764726;81;20250;-59
2021/03/02 09:47:26;;;;;;;;;;;;;;;5.79;57.56;102389.88;1772266;81;20145;-60
2021/03/02 09:49:58;;;;;;;;;;;;;;;5.88;57.67;102384.65;1761217;79;20115;-60
2021/03/02 09:52:39;;;;;;;;;;;;;;;6.04;57.74;102381.28;1768280;81;20216;-61
2021/03/02 09:55:16;;;;;;;;;;;;;;;6.18;57.13;102378.33;1768299;81;23082;-60
2021/03/02 09:58:13;;;;;;;;;;;;;;;6.28;56.49;102369.53;1768190;80;20350;-59
2021/03/02 10:00:49;;;;;;;;;;;;;;;6.38;56.40;102366.95;1776069;80;20280;-60
2021/03/02 10:03:22;;;;;;;;;;;;;;;6.49;56.29;102364.38;1776158;80;20271;-59
2021/03/02 10:05:56;;;;;;;;;;;;;;;6.54;56.29;102355.98;1776239;80;20252;-60
2021/03/02 10:08:41;;;;;;;;;;;;;;;6.59;56.04;102348.91;1776156;80;21216;-60
2021/03/02 10:11:15;;;;;;;;;;;;;;;6.61;55.99;102339.59;1775634;80;20264;-60
2021/03/02 10:13:55;;;;;;;;;;;;;;;6.56;56.34;102332.47;1776253;80;20252;-60
2021/03/02 10:16:35;;;;;;;;;;;;;;;6.55;56.78;102328.02;1770101;80;20277;-60
2021/03/02 10:19:21;;;;;;;;;;;;;;;6.64;56.90;102323.62;1755846;80;20243;-59
2021/03/02 10:21:52;;;;;;;;;;;;;;;6.70;56.66;102310.33;1749364;81;22297;-59
2021/03/02 10:24:37;;;;;;;;;;;;;;;6.71;56.93;102306.77;1758294;80;20290;-60
2021/03/02 10:27:15;;;;;;;;;;;;;;;6.72;57.18;102308.13;1751673;80;20136;-59
2021/03/02 10:29:43;;;;;;;;;;;;;;;6.71;57.79;102301.02;1763658;80;20226;-59
2021/03/02 10:32:10;;;;;;;;;;;;;;;6.70;58.02;102295.23;1752139;80;20237;-59
2021/03/02 10:34:40;;;;;;;;;;;;;;;6.66;58.30;102296.53;1764229;80;21686;-60
2021/03/02 10:37:08;;;;;;;;;;;;;;;6.62;58.46;102298.73;1764786;80;20271;-60
2021/03/02 10:39:36;;;;;;;;;;;;;;;6.64;58.82;102299.63;1756552;80;20214;-60
2021/03/02 10:42:04;;;;;;;;;;;;;;;6.72;58.74;102289.47;1769702;80;20232;-60
2021/03/02 10:44:32;;;;;;;;;;;;;;;6.84;58.50;102292.65;1754270;80;20250;-60
2021/03/02 10:47:00;;;;;;;;;;;;;;;6.93;58.14;102282.90;1758747;80;22107;-60
2021/03/02 10:49:27;;;;;;;;;;;;;;;7.04;57.61;102281.19;1763869;80;20222;-60
2021/03/02 10:51:54;;;;;;;;;;;;;;;7.09;57.23;102284.76;1763039;80;20243;-60
2021/03/02 10:54:25;;;;;;;;;;;;;;;7.11;57.45;102280.78;1770249;80;20233;-60
2021/03/02 10:56:52;;;;;;;;;;;;;;;7.14;57.46;102276.78;1756150;80;20224;-60
2021/03/02 10:59:19;;;;;;;;;;;;;;;7.21;57.13;102264.37;1762796;80;21395;-60
2021/03/02 11:01:48;;;;;;;;;;;;;;;7.25;56.93;102250.14;1748153;81;20236;-60
2021/03/02 11:04:16;;;;;;;;;;;;;;;7.23;56.87;102254.13;1695636;81;20319;-59
2021/03/02 11:06:45;;;;;;;;;;;;;;;7.15;56.76;102246.09;1723174;82;20222;-59
2021/03/02 11:09:14;;;;;;;;;;;;;;;7.06;57.00;102235.41;1749863;81;20220;-60
2021/03/02 11:11:42;;;;;;;;;;;;;;;6.98;57.43;102235.38;1768562;80;21384;-59
2021/03/02 11:14:09;;;;;;;;;;;;;;;6.98;57.40;102223.83;1762541;81;20139;-59
2021/03/02 11:16:38;;;;;;;;;;;;;;;6.90;57.43;102225.56;1757498;81;20226;-59
2021/03/02 11:19:09;;;;;;;;;;;;;;;6.85;58.08;102217.11;1761259;81;20520;-59
2021/03/02 11:21:36;;;;;;;;;;;;;;;6.93;58.52;102217.14;1758671;81;20305;-60
2021/03/02 11:24:05;;;;;;;;;;;;;;;7.00;58.89;102208.27;1761948;81;21699;-59
2021/03/02 11:26:34;;;;;;;;;;;;;;;7.10;58.53;102205.19;1714407;81;20314;-60
2021/03/02 11:29:02;;;;;;;;;;;;;;;7.10;58.64;102198.52;1699329;81;20266;-59
2021/03/02 11:31:30;;;;;;;;;;;;;;;7.13;58.86;102198.52;1746534;81;20504;-59
2021/03/02 11:33:57;;;;;;;;;;;;;;;7.17;58.73;102194.09;1751149;81;20272;-60
2021/03/02 11:36:26;;;;;;;;;;;;;;;7.19;58.73;102187.45;1759674;81;21375;-60
2021/03/02 11:38:53;;;;;;;;;;;;;;;7.17;58.94;102178.97;1753730;81;20232;-60
2021/03/02 11:41:21;;;;;;;;;;;;;;;7.20;58.98;102179.89;1750746;81;20304;-61
2021/03/02 11:43:48;;;;;;;;;;;;;;;7.19;59.00;102173.64;1756977;81;20161;-60
2021/03/02 11:46:15;;;;;;;;;;;;;;;7.20;58.91;102170.55;1764524;81;20229;-60
2021/03/02 11:48:43;;;;;;;;;;;;;;;7.21;59.11;102162.99;1767523;81;21660;-60
2021/03/02 11:51:10;;;;;;;;;;;;;;;7.17;59.35;102166.95;1767454;81;20180;-59
2021/03/02 11:53:37;;;;;;;;;;;;;;;7.12;59.43;102167.86;1767465;81;20109;-59
2021/03/02 11:56:05;;;;;;;;;;;;;;;7.11;59.86;102165.63;1767498;81;20240;-59
2021/03/02 11:58:33;;;;;;;;;;;;;;;7.11;60.08;102162.08;1769031;80;20216;-60
2021/03/02 12:01:00;;;;;;;;;;;;;;;7.06;60.34;102158.06;1776239;80;21610;-60
2021/03/02 12:03:30;;;;;;;;;;;;;;;7.08;60.37;102153.62;1776119;80;20272;-59
2021/03/02 12:05:57;;;;;;;;;;;;;;;7.12;60.50;102151.40;1776182;80;20133;-61
2021/03/02 12:08:26;;;;;;;;;;;;;;;7.20;60.38;102157.21;1776269;80;20227;-61
2021/03/02 12:10:53;;;;;;;;;;;;;;;7.23;60.36;102145.20;1776300;80;20228;-61
2021/03/02 12:13:22;;;;;;;;;;;;;;;7.23;60.47;102143.41;1776340;80;23209;-61
2021/03/02 12:15:49;;;;;;;;;;;;;;;7.21;60.50;102146.98;1776199;80;20184;-59
2021/03/02 12:18:16;;;;;;;;;;;;;;;7.21;60.85;102136.31;1776277;80;20397;-59
2021/03/02 12:20:43;;;;;;;;;;;;;;;7.23;60.73;102129.20;1776210;80;20284;-59
2021/03/02 12:23:12;;;;;;;;;;;;;;;7.21;60.72;102134.98;1756202;79;20222;-60
2021/03/02 12:25:39;;;;;;;;;;;;;;;7.16;60.91;102131.84;1763457;80;21453;-61
2021/03/02 12:28:07;;;;;;;;;;;;;;;7.19;61.25;102118.09;1772663;80;20516;-60
2021/03/02 12:30:34;;;;;;;;;;;;;;;7.17;61.75;102124.73;1774972;81;20228;-59
2021/03/02 12:33:03;;;;;;;;;;;;;;;7.16;61.71;102117.16;1771460;80;20228;-60
2021/03/02 12:35:31;;;;;;;;;;;;;;;7.13;61.67;102105.16;1775407;80;20267;-61
2021/03/02 12:37:58;;;;;;;;;;;;;;;7.14;62.16;102104.73;1775065;80;21399;-60
2021/03/02 12:40:25;;;;;;;;;;;;;;;7.14;62.68;102098.94;1775383;80;20317;-60
2021/03/02 12:42:52;;;;;;;;;;;;;;;7.16;62.64;102101.16;1772178;80;20259;-60
2021/03/02 12:45:19;;;;;;;;;;;;;;;7.15;62.58;102094.05;1763365;80;21848;-60
2021/03/02 12:47:47;;;;;;;;;;;;;;;7.11;62.61;102104.27;1744843;82;20305;-61
2021/03/02 12:50:15;;;;;;;;;;;;;;;7.07;63.06;102092.26;1744901;82;21163;-60
2021/03/02 12:52:42;;;;;;;;;;;;;;;7.08;63.86;102095.41;1745021;82;20218;-60
2021/03/02 12:55:10;;;;;;;;;;;;;;;7.15;63.93;102079.38;1764548;80;20125;-60
2021/03/02 12:57:37;;;;;;;;;;;;;;;7.23;63.83;102074.52;1764534;80;20212;-60
2021/03/02 13:00:07;;;;;;;;;;;;;;;7.33;63.82;102073.61;1739166;82;20252;-60
2021/03/02 13:02:38;;;;;;;;;;;;;;;7.44;63.59;102057.16;1741645;81;21510;-60